Airfield :
LOGIN :

Register | Disclaimer

   EN    FR    IT 

 










Legend :    VFR   Marginal VFR   IFR   Intensive IFR   Very Intensive IFR
Visi :
Ceiling :
>= 8 km
>= 3000ft
5 to 8 km
1000 to 3000 ft
1500m to 5 km
500 to 1000 ft
800 to 1500m
200 to 500 ft
< 800m
< 200 ft
Symbols :   Thunderstorms  Fog  Heavy snow  Heavy precipitations  Wind > 20 kt
SIGMETs :     Misc.  Thunderstorms  Icing  Turbulence  Mountain Waves  Volcanic Ashes






- Airport Elevation : 288 ft
- IATA code : BZZ


EGVN - RAF Brize Norton

CURRENT METAR :
  • 280520Z 13002KT 0200 FG VV/// 06/06 Q1018 NOSIG RMK RED RED

EXPIRED METARs :
  • 280450Z 20001KT 0300 FG VV/// 06/06 Q1019 NOSIG RMK RED RED
  • 280420Z 00000KT 0300 FG VV/// 06/06 Q1019 NOSIG RMK RED RED
  • 280350Z 26001KT 0300 FG VV/// 06/06 Q1019 NOSIG RMK RED RED
  • 280320Z 00000KT 0250 FG VV/// 06/06 Q1019 NOSIG RMK RED RED
  • 280250Z 27002KT 0200 FG VV/// 06/06 Q1019 NOSIG RMK RED RED
  • 280220Z 26003KT 0150 FG VV/// 06/06 Q1019 NOSIG RMK RED RED
  • 280150Z 22001KT 0150 FG VV/// 06/06 Q1019 NOSIG RMK RED RED
  • 280120Z 27002KT 0100 FG VV/// 06/06 Q1019 NOSIG RMK RED RED
  • 280050Z 25002KT 0200 FG OVC000 07/07 Q1019 NOSIG RMK RED RED

TAF TAF EGVN
Valid from the 28 at 06:00 until the 29 at 06:00 UTC


280443Z 2806/2906 VRB03KT 0200 FG BKN000
BECMG 2807/2810 5000 BR SCT014
BECMG 2810/2812 9999 NSW FEW015
BECMG 2812/2815 BKN012
TEMPO 2814/2823 7000 -RA BKN006
PROB30
TEMPO 2817/2823 3000 RADZ BKN004
PROB30
TEMPO 2823/2902 FEW012
TEMPO 2902/2905 7000 -RA BKN006
PROB30
TEMPO 2902/2905 3000 RADZ
BECMG 2904/2906 FEW010 BKN040



MET'MAP, your aeronautical weather chart ! - Copyright ORBIFLY December 2007 - Disclaimer

ORBIFLY MET'MAP TEAM :

Programming & Development : Alexandra Zaïnal
Original concept : Baudouin d'Aumeries
Technical & hardware support : Manuel Goepfert
Assistance : Marc-Olivier Méhu




SOURCES & CREDITS :

   NOAA